sensor_id;sensor_type;location;lat;lon;timestamp;P1;durP1;ratioP1;P2;durP2;ratioP2
6197;SDS011;3132;42.622;23.328;2023-10-08T00:01:08;11.67;;;10.50;;
6197;SDS011;3132;42.622;23.328;2023-10-08T00:03:38;11.67;;;9.83;;
6197;SDS011;3132;42.622;23.328;2023-10-08T00:06:03;12.13;;;11.23;;
6197;SDS011;3132;42.622;23.328;2023-10-08T00:08:37;9.67;;;8.97;;
6197;SDS011;3132;42.622;23.328;2023-10-08T00:11:02;9.90;;;9.20;;
6197;SDS011;3132;42.622;23.328;2023-10-08T00:13:32;10.67;;;9.63;;
6197;SDS011;3132;42.622;23.328;2023-10-08T00:16:07;11.80;;;10.90;;
6197;SDS011;3132;42.622;23.328;2023-10-08T00:18:37;10.83;;;10.03;;
6197;SDS011;3132;42.622;23.328;2023-10-08T00:21:06;10.53;;;9.93;;
6197;SDS011;3132;42.622;23.328;2023-10-08T00:23:37;11.20;;;10.20;;
6197;SDS011;3132;42.622;23.328;2023-10-08T00:26:07;11.40;;;10.33;;
6197;SDS011;3132;42.622;23.328;2023-10-08T00:28:33;10.37;;;9.57;;
6197;SDS011;3132;42.622;23.328;2023-10-08T00:31:01;10.57;;;9.97;;
6197;SDS011;3132;42.622;23.328;2023-10-08T00:33:32;11.30;;;10.37;;
6197;SDS011;3132;42.622;23.328;2023-10-08T00:35:58;9.67;;;9.07;;
6197;SDS011;3132;42.622;23.328;2023-10-08T00:38:23;11.40;;;10.50;;
6197;SDS011;3132;42.622;23.328;2023-10-08T00:40:57;10.30;;;9.73;;
6197;SDS011;3132;42.622;23.328;2023-10-08T00:43:29;8.77;;;8.17;;
6197;SDS011;3132;42.622;23.328;2023-10-08T00:45:55;11.40;;;10.63;;
6197;SDS011;3132;42.622;23.328;2023-10-08T00:48:24;10.67;;;9.97;;
6197;SDS011;3132;42.622;23.328;2023-10-08T00:50:53;9.83;;;9.10;;
6197;SDS011;3132;42.622;23.328;2023-10-08T00:53:34;10.83;;;10.13;;
6197;SDS011;3132;42.622;23.328;2023-10-08T00:56:04;10.53;;;9.87;;
6197;SDS011;3132;42.622;23.328;2023-10-08T00:58:38;11.10;;;10.17;;
6197;SDS011;3132;42.622;23.328;2023-10-08T01:01:05;11.37;;;10.47;;
6197;SDS011;3132;42.622;23.328;2023-10-08T01:03:35;10.17;;;9.37;;
6197;SDS011;3132;42.622;23.328;2023-10-08T01:06:01;11.63;;;10.80;;
6197;SDS011;3132;42.622;23.328;2023-10-08T01:08:28;10.87;;;10.17;;
6197;SDS011;3132;42.622;23.328;2023-10-08T01:11:19;10.30;;;9.40;;
6197;SDS011;3132;42.622;23.328;2023-10-08T01:14:00;11.13;;;10.33;;
6197;SDS011;3132;42.622;23.328;2023-10-08T01:16:25;10.33;;;9.60;;
6197;SDS011;3132;42.622;23.328;2023-10-08T01:18:58;10.83;;;10.10;;
6197;SDS011;3132;42.622;23.328;2023-10-08T01:21:27;10.50;;;9.50;;
6197;SDS011;3132;42.622;23.328;2023-10-08T01:24:00;11.87;;;10.73;;
6197;SDS011;3132;42.622;23.328;2023-10-08T01:26:30;10.63;;;9.93;;
6197;SDS011;3132;42.622;23.328;2023-10-08T01:28:57;11.53;;;10.50;;
6197;SDS011;3132;42.622;23.328;2023-10-08T01:31:27;12.47;;;11.30;;
6197;SDS011;3132;42.622;23.328;2023-10-08T01:33:53;11.33;;;10.53;;
6197;SDS011;3132;42.622;23.328;2023-10-08T01:36:21;11.53;;;10.63;;
6197;SDS011;3132;42.622;23.328;2023-10-08T01:38:50;11.20;;;10.40;;
6197;SDS011;3132;42.622;23.328;2023-10-08T01:41:17;12.00;;;10.87;;
6197;SDS011;3132;42.622;23.328;2023-10-08T01:43:55;10.67;;;9.83;;
6197;SDS011;3132;42.622;23.328;2023-10-08T01:46:22;11.47;;;10.57;;
6197;SDS011;3132;42.622;23.328;2023-10-08T01:48:48;10.67;;;9.77;;
6197;SDS011;3132;42.622;23.328;2023-10-08T01:51:18;11.47;;;10.47;;
6197;SDS011;3132;42.622;23.328;2023-10-08T01:54:02;12.13;;;11.03;;
6197;SDS011;3132;42.622;23.328;2023-10-08T01:56:29;11.80;;;10.73;;
6197;SDS011;3132;42.622;23.328;2023-10-08T01:58:55;11.53;;;10.53;;
6197;SDS011;3132;42.622;23.328;2023-10-08T02:01:20;11.17;;;10.37;;
6197;SDS011;3132;42.622;23.328;2023-10-08T02:03:46;11.97;;;10.90;;
6197;SDS011;3132;42.622;23.328;2023-10-08T02:06:11;12.37;;;10.97;;
6197;SDS011;3132;42.622;23.328;2023-10-08T02:08:37;12.27;;;11.17;;
6197;SDS011;3132;42.622;23.328;2023-10-08T02:11:03;11.03;;;10.33;;
6197;SDS011;3132;42.622;23.328;2023-10-08T02:13:28;10.67;;;9.87;;
6197;SDS011;3132;42.622;23.328;2023-10-08T02:15:55;11.23;;;10.47;;
6197;SDS011;3132;42.622;23.328;2023-10-08T02:18:21;11.57;;;10.57;;
6197;SDS011;3132;42.622;23.328;2023-10-08T02:20:50;11.37;;;10.53;;
6197;SDS011;3132;42.622;23.328;2023-10-08T02:23:16;11.47;;;10.57;;
6197;SDS011;3132;42.622;23.328;2023-10-08T02:25:43;11.20;;;10.10;;
6197;SDS011;3132;42.622;23.328;2023-10-08T02:28:09;11.27;;;10.37;;
6197;SDS011;3132;42.622;23.328;2023-10-08T02:30:40;10.70;;;9.80;;
6197;SDS011;3132;42.622;23.328;2023-10-08T02:33:06;11.60;;;10.23;;
6197;SDS011;3132;42.622;23.328;2023-10-08T02:35:50;10.87;;;10.13;;
6197;SDS011;3132;42.622;23.328;2023-10-08T02:38:17;11.70;;;10.80;;
6197;SDS011;3132;42.622;23.328;2023-10-08T02:40:43;12.17;;;11.27;;
6197;SDS011;3132;42.622;23.328;2023-10-08T02:43:13;12.30;;;11.37;;
6197;SDS011;3132;42.622;23.328;2023-10-08T02:45:43;12.47;;;11.47;;
6197;SDS011;3132;42.622;23.328;2023-10-08T02:48:14;12.50;;;11.47;;
6197;SDS011;3132;42.622;23.328;2023-10-08T02:50:40;11.37;;;10.53;;
6197;SDS011;3132;42.622;23.328;2023-10-08T02:53:07;11.70;;;11.00;;
6197;SDS011;3132;42.622;23.328;2023-10-08T02:55:43;11.07;;;10.20;;
6197;SDS011;3132;42.622;23.328;2023-10-08T02:58:11;11.03;;;10.43;;
6197;SDS011;3132;42.622;23.328;2023-10-08T03:00:43;11.43;;;10.33;;
6197;SDS011;3132;42.622;23.328;2023-10-08T03:03:11;12.03;;;11.13;;
6197;SDS011;3132;42.622;23.328;2023-10-08T03:05:47;10.70;;;9.90;;
6197;SDS011;3132;42.622;23.328;2023-10-08T03:08:17;12.13;;;11.03;;
6197;SDS011;3132;42.622;23.328;2023-10-08T03:10:46;11.20;;;10.40;;
6197;SDS011;3132;42.622;23.328;2023-10-08T03:13:20;12.60;;;11.40;;
6197;SDS011;3132;42.622;23.328;2023-10-08T03:15:47;11.13;;;10.27;;
6197;SDS011;3132;42.622;23.328;2023-10-08T03:18:28;13.00;;;11.80;;
6197;SDS011;3132;42.622;23.328;2023-10-08T03:21:01;12.57;;;11.67;;
6197;SDS011;3132;42.622;23.328;2023-10-08T03:23:31;11.17;;;10.17;;
6197;SDS011;3132;42.622;23.328;2023-10-08T03:26:01;12.20;;;11.03;;
6197;SDS011;3132;42.622;23.328;2023-10-08T03:28:53;10.90;;;9.97;;
6197;SDS011;3132;42.622;23.328;2023-10-08T03:31:22;11.90;;;10.83;;
6197;SDS011;3132;42.622;23.328;2023-10-08T03:34:08;11.03;;;10.27;;
6197;SDS011;3132;42.622;23.328;2023-10-08T03:36:37;10.50;;;9.70;;
6197;SDS011;3132;42.622;23.328;2023-10-08T03:39:09;12.03;;;11.23;;
6197;SDS011;3132;42.622;23.328;2023-10-08T03:41:38;11.17;;;10.17;;
6197;SDS011;3132;42.622;23.328;2023-10-08T03:44:05;11.67;;;10.60;;
6197;SDS011;3132;42.622;23.328;2023-10-08T03:46:32;11.50;;;10.57;;
6197;SDS011;3132;42.622;23.328;2023-10-08T03:49:04;13.10;;;11.90;;
6197;SDS011;3132;42.622;23.328;2023-10-08T03:51:41;9.70;;;8.87;;
6197;SDS011;3132;42.622;23.328;2023-10-08T03:54:07;11.93;;;10.53;;
6197;SDS011;3132;42.622;23.328;2023-10-08T03:56:44;11.70;;;10.60;;
6197;SDS011;3132;42.622;23.328;2023-10-08T03:59:19;11.23;;;10.43;;
6197;SDS011;3132;42.622;23.328;2023-10-08T04:01:59;11.93;;;10.83;;
6197;SDS011;3132;42.622;23.328;2023-10-08T04:04:44;11.20;;;10.40;;
6197;SDS011;3132;42.622;23.328;2023-10-08T04:07:23;11.37;;;10.60;;
6197;SDS011;3132;42.622;23.328;2023-10-08T04:09:50;11.60;;;10.80;;
6197;SDS011;3132;42.622;23.328;2023-10-08T04:12:24;12.50;;;11.47;;
6197;SDS011;3132;42.622;23.328;2023-10-08T04:14:52;11.20;;;10.30;;
6197;SDS011;3132;42.622;23.328;2023-10-08T04:17:20;10.40;;;9.57;;
6197;SDS011;3132;42.622;23.328;2023-10-08T04:19:47;11.33;;;10.30;;
6197;SDS011;3132;42.622;23.328;2023-10-08T04:22:13;11.13;;;10.23;;
6197;SDS011;3132;42.622;23.328;2023-10-08T04:24:41;11.07;;;10.17;;
6197;SDS011;3132;42.622;23.328;2023-10-08T04:27:09;10.87;;;9.97;;
6197;SDS011;3132;42.622;23.328;2023-10-08T04:29:34;12.40;;;11.40;;
6197;SDS011;3132;42.622;23.328;2023-10-08T04:32:03;11.80;;;10.80;;
6197;SDS011;3132;42.622;23.328;2023-10-08T04:34:37;11.93;;;10.93;;
6197;SDS011;3132;42.622;23.328;2023-10-08T04:37:03;10.87;;;10.07;;
6197;SDS011;3132;42.622;23.328;2023-10-08T04:39:33;10.83;;;9.90;;
6197;SDS011;3132;42.622;23.328;2023-10-08T04:41:59;11.47;;;10.70;;
6197;SDS011;3132;42.622;23.328;2023-10-08T04:44:37;10.77;;;9.83;;
6197;SDS011;3132;42.622;23.328;2023-10-08T04:47:04;11.60;;;10.47;;
6197;SDS011;3132;42.622;23.328;2023-10-08T04:49:31;10.93;;;10.10;;
6197;SDS011;3132;42.622;23.328;2023-10-08T04:52:03;12.20;;;10.97;;
6197;SDS011;3132;42.622;23.328;2023-10-08T04:54:40;11.40;;;10.60;;
6197;SDS011;3132;42.622;23.328;2023-10-08T04:57:11;12.47;;;11.43;;
6197;SDS011;3132;42.622;23.328;2023-10-08T04:59:43;11.27;;;10.33;;
6197;SDS011;3132;42.622;23.328;2023-10-08T05:02:09;12.03;;;11.03;;
6197;SDS011;3132;42.622;23.328;2023-10-08T05:04:48;12.47;;;11.50;;
6197;SDS011;3132;42.622;23.328;2023-10-08T05:07:34;13.27;;;12.17;;
6197;SDS011;3132;42.622;23.328;2023-10-08T05:10:25;17.03;;;11.37;;
6197;SDS011;3132;42.622;23.328;2023-10-08T05:12:53;12.63;;;11.63;;
6197;SDS011;3132;42.622;23.328;2023-10-08T05:15:28;13.47;;;12.17;;
6197;SDS011;3132;42.622;23.328;2023-10-08T05:18:07;12.60;;;11.67;;
6197;SDS011;3132;42.622;23.328;2023-10-08T05:20:48;12.43;;;11.43;;
6197;SDS011;3132;42.622;23.328;2023-10-08T05:23:15;12.27;;;11.27;;
6197;SDS011;3132;42.622;23.328;2023-10-08T05:25:55;12.70;;;11.73;;
6197;SDS011;3132;42.622;23.328;2023-10-08T05:28:34;12.80;;;11.70;;
6197;SDS011;3132;42.622;23.328;2023-10-08T05:31:10;13.67;;;12.53;;
6197;SDS011;3132;42.622;23.328;2023-10-08T05:33:36;13.07;;;11.80;;
6197;SDS011;3132;42.622;23.328;2023-10-08T05:36:20;13.67;;;12.27;;
6197;SDS011;3132;42.622;23.328;2023-10-08T05:39:18;12.80;;;11.57;;
6197;SDS011;3132;42.622;23.328;2023-10-08T05:41:50;12.50;;;11.53;;
6197;SDS011;3132;42.622;23.328;2023-10-08T05:44:34;12.77;;;11.47;;
6197;SDS011;3132;42.622;23.328;2023-10-08T05:47:06;13.63;;;12.57;;
6197;SDS011;3132;42.622;23.328;2023-10-08T05:49:37;11.40;;;10.50;;
6197;SDS011;3132;42.622;23.328;2023-10-08T05:52:03;12.83;;;11.83;;
6197;SDS011;3132;42.622;23.328;2023-10-08T05:54:30;11.80;;;10.80;;
6197;SDS011;3132;42.622;23.328;2023-10-08T05:57:00;11.93;;;10.73;;
6197;SDS011;3132;42.622;23.328;2023-10-08T05:59:43;13.70;;;11.63;;
6197;SDS011;3132;42.622;23.328;2023-10-08T06:02:28;14.63;;;11.37;;
6197;SDS011;3132;42.622;23.328;2023-10-08T06:04:58;12.43;;;11.33;;
6197;SDS011;3132;42.622;23.328;2023-10-08T06:07:43;14.53;;;11.37;;
6197;SDS011;3132;42.622;23.328;2023-10-08T06:12:57;11.83;;;10.73;;
6197;SDS011;3132;42.622;23.328;2023-10-08T06:15:41;13.23;;;11.37;;
6197;SDS011;3132;42.622;23.328;2023-10-08T06:18:31;11.93;;;11.10;;
6197;SDS011;3132;42.622;23.328;2023-10-08T06:23:25;13.90;;;10.97;;
6197;SDS011;3132;42.622;23.328;2023-10-08T06:25:53;12.30;;;11.40;;
6197;SDS011;3132;42.622;23.328;2023-10-08T06:28:23;11.73;;;10.77;;
6197;SDS011;3132;42.622;23.328;2023-10-08T06:30:54;11.57;;;10.57;;
6197;SDS011;3132;42.622;23.328;2023-10-08T06:33:23;11.67;;;10.77;;
6197;SDS011;3132;42.622;23.328;2023-10-08T06:35:55;12.03;;;11.03;;
6197;SDS011;3132;42.622;23.328;2023-10-08T06:38:34;12.43;;;11.27;;
6197;SDS011;3132;42.622;23.328;2023-10-08T06:41:00;13.17;;;11.97;;
6197;SDS011;3132;42.622;23.328;2023-10-08T06:43:33;11.80;;;10.50;;
6197;SDS011;3132;42.622;23.328;2023-10-08T06:46:02;12.03;;;11.03;;
6197;SDS011;3132;42.622;23.328;2023-10-08T06:48:28;15.23;;;11.13;;
6197;SDS011;3132;42.622;23.328;2023-10-08T06:50:54;12.77;;;11.43;;
6197;SDS011;3132;42.622;23.328;2023-10-08T06:53:32;12.37;;;10.90;;
6197;SDS011;3132;42.622;23.328;2023-10-08T06:55:58;12.77;;;11.63;;
6197;SDS011;3132;42.622;23.328;2023-10-08T06:58:28;12.53;;;11.63;;
6197;SDS011;3132;42.622;23.328;2023-10-08T07:00:57;12.17;;;11.03;;
6197;SDS011;3132;42.622;23.328;2023-10-08T07:03:23;11.30;;;10.40;;
6197;SDS011;3132;42.622;23.328;2023-10-08T07:05:50;12.57;;;11.37;;
6197;SDS011;3132;42.622;23.328;2023-10-08T07:08:23;10.00;;;9.30;;
6197;SDS011;3132;42.622;23.328;2023-10-08T07:10:52;10.90;;;10.10;;
6197;SDS011;3132;42.622;23.328;2023-10-08T07:13:19;12.90;;;10.80;;
6197;SDS011;3132;42.622;23.328;2023-10-08T07:15:51;14.43;;;10.97;;
6197;SDS011;3132;42.622;23.328;2023-10-08T07:18:17;12.20;;;11.07;;
6197;SDS011;3132;42.622;23.328;2023-10-08T07:20:56;11.93;;;10.17;;
6197;SDS011;3132;42.622;23.328;2023-10-08T07:23:25;12.50;;;11.27;;
6197;SDS011;3132;42.622;23.328;2023-10-08T07:26:00;13.80;;;11.23;;
6197;SDS011;3132;42.622;23.328;2023-10-08T07:28:44;11.47;;;10.47;;
6197;SDS011;3132;42.622;23.328;2023-10-08T07:31:17;12.37;;;10.97;;
6197;SDS011;3132;42.622;23.328;2023-10-08T07:33:56;14.73;;;12.03;;
6197;SDS011;3132;42.622;23.328;2023-10-08T07:36:25;13.87;;;10.67;;
6197;SDS011;3132;42.622;23.328;2023-10-08T07:38:52;11.53;;;10.57;;
6197;SDS011;3132;42.622;23.328;2023-10-08T07:41:18;12.40;;;11.13;;
6197;SDS011;3132;42.622;23.328;2023-10-08T07:43:46;16.03;;;12.30;;
6197;SDS011;3132;42.622;23.328;2023-10-08T07:46:23;10.47;;;9.43;;
6197;SDS011;3132;42.622;23.328;2023-10-08T07:48:52;9.70;;;8.77;;
6197;SDS011;3132;42.622;23.328;2023-10-08T07:51:18;10.77;;;9.87;;
6197;SDS011;3132;42.622;23.328;2023-10-08T07:53:50;11.47;;;9.67;;
6197;SDS011;3132;42.622;23.328;2023-10-08T07:56:20;11.50;;;10.50;;
6197;SDS011;3132;42.622;23.328;2023-10-08T07:58:50;14.07;;;9.93;;
6197;SDS011;3132;42.622;23.328;2023-10-08T08:01:15;15.50;;;10.57;;
6197;SDS011;3132;42.622;23.328;2023-10-08T08:03:41;10.37;;;9.53;;
6197;SDS011;3132;42.622;23.328;2023-10-08T08:06:08;10.33;;;9.30;;
6197;SDS011;3132;42.622;23.328;2023-10-08T08:08:35;11.20;;;10.23;;
6197;SDS011;3132;42.622;23.328;2023-10-08T08:11:05;11.70;;;10.70;;
6197;SDS011;3132;42.622;23.328;2023-10-08T08:13:42;10.13;;;9.37;;
6197;SDS011;3132;42.622;23.328;2023-10-08T08:16:10;11.23;;;10.23;;
6197;SDS011;3132;42.622;23.328;2023-10-08T08:21:09;11.87;;;10.77;;
6197;SDS011;3132;42.622;23.328;2023-10-08T08:23:39;11.40;;;10.33;;
6197;SDS011;3132;42.622;23.328;2023-10-08T08:26:06;11.97;;;10.73;;
6197;SDS011;3132;42.622;23.328;2023-10-08T08:28:36;12.33;;;10.20;;
6197;SDS011;3132;42.622;23.328;2023-10-08T08:31:05;10.27;;;9.27;;
6197;SDS011;3132;42.622;23.328;2023-10-08T08:33:39;9.10;;;8.30;;
6197;SDS011;3132;42.622;23.328;2023-10-08T08:36:25;11.80;;;9.90;;
6197;SDS011;3132;42.622;23.328;2023-10-08T08:38:51;11.07;;;10.03;;
6197;SDS011;3132;42.622;23.328;2023-10-08T08:41:17;10.50;;;9.50;;
6197;SDS011;3132;42.622;23.328;2023-10-08T08:43:48;10.20;;;9.20;;
6197;SDS011;3132;42.622;23.328;2023-10-08T08:46:21;13.83;;;9.90;;
6197;SDS011;3132;42.622;23.328;2023-10-08T08:48:52;11.07;;;10.03;;
6197;SDS011;3132;42.622;23.328;2023-10-08T08:51:19;12.20;;;10.33;;
6197;SDS011;3132;42.622;23.328;2023-10-08T08:53:47;11.80;;;10.60;;
6197;SDS011;3132;42.622;23.328;2023-10-08T08:56:12;10.87;;;9.67;;
6197;SDS011;3132;42.622;23.328;2023-10-08T08:58:38;13.93;;;9.65;;
6197;SDS011;3132;42.622;23.328;2023-10-08T09:01:06;10.38;;;9.43;;
6197;SDS011;3132;42.622;23.328;2023-10-08T09:03:34;11.85;;;10.40;;
6197;SDS011;3132;42.622;23.328;2023-10-08T09:06:02;10.57;;;9.40;;
6197;SDS011;3132;42.622;23.328;2023-10-08T09:08:32;10.40;;;9.57;;
6197;SDS011;3132;42.622;23.328;2023-10-08T09:10:59;13.18;;;11.13;;
6197;SDS011;3132;42.622;23.328;2023-10-08T09:13:30;12.65;;;8.15;;
6197;SDS011;3132;42.622;23.328;2023-10-08T09:18:58;10.38;;;9.35;;
6197;SDS011;3132;42.622;23.328;2023-10-08T09:21:23;13.53;;;10.23;;
6197;SDS011;3132;42.622;23.328;2023-10-08T09:23:49;11.97;;;9.47;;
6197;SDS011;3132;42.622;23.328;2023-10-08T09:26:21;11.27;;;10.17;;
6197;SDS011;3132;42.622;23.328;2023-10-08T09:28:52;9.60;;;8.70;;
6197;SDS011;3132;42.622;23.328;2023-10-08T09:31:18;10.33;;;9.47;;
6197;SDS011;3132;42.622;23.328;2023-10-08T09:33:55;12.70;;;10.90;;
6197;SDS011;3132;42.622;23.328;2023-10-08T09:36:22;10.87;;;10.00;;
6197;SDS011;3132;42.622;23.328;2023-10-08T09:38:57;10.23;;;9.43;;
6197;SDS011;3132;42.622;23.328;2023-10-08T09:41:25;11.60;;;10.50;;
6197;SDS011;3132;42.622;23.328;2023-10-08T09:43:53;9.95;;;8.73;;
6197;SDS011;3132;42.622;23.328;2023-10-08T09:46:19;9.25;;;8.52;;
6197;SDS011;3132;42.622;23.328;2023-10-08T09:48:50;11.35;;;9.48;;
6197;SDS011;3132;42.622;23.328;2023-10-08T09:51:19;15.60;;;10.88;;
6197;SDS011;3132;42.622;23.328;2023-10-08T09:53:52;10.68;;;9.73;;
6197;SDS011;3132;42.622;23.328;2023-10-08T09:56:40;11.32;;;9.60;;
6197;SDS011;3132;42.622;23.328;2023-10-08T09:59:06;13.18;;;9.73;;
6197;SDS011;3132;42.622;23.328;2023-10-08T10:01:34;10.02;;;8.90;;
6197;SDS011;3132;42.622;23.328;2023-10-08T10:04:05;11.98;;;10.23;;
6197;SDS011;3132;42.622;23.328;2023-10-08T10:06:31;10.88;;;9.85;;
6197;SDS011;3132;42.622;23.328;2023-10-08T10:08:57;18.50;;;9.70;;
6197;SDS011;3132;42.622;23.328;2023-10-08T10:11:30;11.02;;;8.65;;
6197;SDS011;3132;42.622;23.328;2023-10-08T10:13:58;10.15;;;8.77;;
6197;SDS011;3132;42.622;23.328;2023-10-08T10:16:27;13.35;;;9.38;;
6197;SDS011;3132;42.622;23.328;2023-10-08T10:18:56;9.38;;;8.57;;
6197;SDS011;3132;42.622;23.328;2023-10-08T10:21:32;10.60;;;9.70;;
6197;SDS011;3132;42.622;23.328;2023-10-08T10:23:58;12.68;;;10.00;;
6197;SDS011;3132;42.622;23.328;2023-10-08T10:31:32;10.80;;;9.90;;
6197;SDS011;3132;42.622;23.328;2023-10-08T10:34:04;9.40;;;8.60;;
6197;SDS011;3132;42.622;23.328;2023-10-08T10:36:53;11.20;;;9.57;;
6197;SDS011;3132;42.622;23.328;2023-10-08T10:39:33;9.35;;;8.65;;
6197;SDS011;3132;42.622;23.328;2023-10-08T10:42:00;9.82;;;9.02;;
6197;SDS011;3132;42.622;23.328;2023-10-08T10:44:27;10.48;;;9.68;;
6197;SDS011;3132;42.622;23.328;2023-10-08T10:46:54;13.65;;;9.10;;
6197;SDS011;3132;42.622;23.328;2023-10-08T10:49:44;10.27;;;9.40;;
6197;SDS011;3132;42.622;23.328;2023-10-08T10:52:16;10.35;;;9.45;;
6197;SDS011;3132;42.622;23.328;2023-10-08T10:54:54;9.98;;;9.23;;
6197;SDS011;3132;42.622;23.328;2023-10-08T10:57:31;12.57;;;9.20;;
6197;SDS011;3132;42.622;23.328;2023-10-08T11:00:06;9.68;;;8.88;;
6197;SDS011;3132;42.622;23.328;2023-10-08T11:02:51;11.20;;;9.48;;
6197;SDS011;3132;42.622;23.328;2023-10-08T11:05:21;10.05;;;9.30;;
6197;SDS011;3132;42.622;23.328;2023-10-08T11:07:53;9.88;;;9.07;;
6197;SDS011;3132;42.622;23.328;2023-10-08T11:10:25;10.68;;;9.45;;
6197;SDS011;3132;42.622;23.328;2023-10-08T11:12:53;9.77;;;8.77;;
6197;SDS011;3132;42.622;23.328;2023-10-08T11:15:19;9.68;;;8.98;;
6197;SDS011;3132;42.622;23.328;2023-10-08T11:17:49;10.10;;;8.93;;
6197;SDS011;3132;42.622;23.328;2023-10-08T11:20:25;12.20;;;9.52;;
6197;SDS011;3132;42.622;23.328;2023-10-08T11:22:51;12.27;;;8.70;;
6197;SDS011;3132;42.622;23.328;2023-10-08T11:25:22;10.90;;;9.02;;
6197;SDS011;3132;42.622;23.328;2023-10-08T11:27:53;9.68;;;8.73;;
6197;SDS011;3132;42.622;23.328;2023-10-08T11:30:26;12.20;;;9.30;;
6197;SDS011;3132;42.622;23.328;2023-10-08T11:32:55;14.82;;;9.43;;
6197;SDS011;3132;42.622;23.328;2023-10-08T11:35:22;10.25;;;9.15;;
6197;SDS011;3132;42.622;23.328;2023-10-08T11:37:47;10.32;;;9.38;;
6197;SDS011;3132;42.622;23.328;2023-10-08T11:40:25;12.80;;;10.48;;
6197;SDS011;3132;42.622;23.328;2023-10-08T11:43:02;10.48;;;8.90;;
6197;SDS011;3132;42.622;23.328;2023-10-08T11:45:28;10.27;;;9.32;;
6197;SDS011;3132;42.622;23.328;2023-10-08T11:48:03;13.32;;;9.48;;
6197;SDS011;3132;42.622;23.328;2023-10-08T11:50:37;10.65;;;9.60;;
6197;SDS011;3132;42.622;23.328;2023-10-08T11:53:04;10.20;;;8.68;;
6197;SDS011;3132;42.622;23.328;2023-10-08T11:55:31;15.60;;;9.52;;
6197;SDS011;3132;42.622;23.328;2023-10-08T11:58:04;10.48;;;9.02;;
6197;SDS011;3132;42.622;23.328;2023-10-08T12:00:42;11.35;;;9.00;;
6197;SDS011;3132;42.622;23.328;2023-10-08T12:03:14;11.38;;;9.73;;
6197;SDS011;3132;42.622;23.328;2023-10-08T12:05:43;11.43;;;9.00;;
6197;SDS011;3132;42.622;23.328;2023-10-08T12:08:13;15.60;;;9.50;;
6197;SDS011;3132;42.622;23.328;2023-10-08T12:10:41;10.65;;;9.68;;
6197;SDS011;3132;42.622;23.328;2023-10-08T12:13:08;9.82;;;8.95;;
6197;SDS011;3132;42.622;23.328;2023-10-08T12:15:35;12.38;;;9.20;;
6197;SDS011;3132;42.622;23.328;2023-10-08T12:18:03;9.48;;;8.57;;
6197;SDS011;3132;42.622;23.328;2023-10-08T12:20:50;9.38;;;8.60;;
6197;SDS011;3132;42.622;23.328;2023-10-08T12:23:15;10.13;;;9.13;;
6197;SDS011;3132;42.622;23.328;2023-10-08T12:25:50;10.30;;;9.25;;
6197;SDS011;3132;42.622;23.328;2023-10-08T12:28:21;9.95;;;9.13;;
6197;SDS011;3132;42.622;23.328;2023-10-08T12:30:50;15.43;;;9.75;;
6197;SDS011;3132;42.622;23.328;2023-10-08T12:33:22;10.63;;;9.45;;
6197;SDS011;3132;42.622;23.328;2023-10-08T12:35:51;13.48;;;9.40;;
6197;SDS011;3132;42.622;23.328;2023-10-08T12:38:18;11.10;;;8.93;;
6197;SDS011;3132;42.622;23.328;2023-10-08T12:40:47;10.23;;;9.32;;
6197;SDS011;3132;42.622;23.328;2023-10-08T12:43:17;10.70;;;9.30;;
6197;SDS011;3132;42.622;23.328;2023-10-08T12:45:47;10.68;;;9.65;;
6197;SDS011;3132;42.622;23.328;2023-10-08T12:48:24;12.27;;;8.88;;
6197;SDS011;3132;42.622;23.328;2023-10-08T12:50:51;11.20;;;8.70;;
6197;SDS011;3132;42.622;23.328;2023-10-08T12:53:24;11.15;;;9.77;;
6197;SDS011;3132;42.622;23.328;2023-10-08T12:56:00;17.33;;;8.90;;
6197;SDS011;3132;42.622;23.328;2023-10-08T12:58:31;10.35;;;9.18;;
6197;SDS011;3132;42.622;23.328;2023-10-08T13:01:06;15.18;;;8.85;;
6197;SDS011;3132;42.622;23.328;2023-10-08T13:03:39;10.52;;;8.55;;
6197;SDS011;3132;42.622;23.328;2023-10-08T13:06:10;14.10;;;9.15;;
6197;SDS011;3132;42.622;23.328;2023-10-08T13:08:40;13.85;;;9.55;;
6197;SDS011;3132;42.622;23.328;2023-10-08T13:11:06;9.25;;;8.55;;
6197;SDS011;3132;42.622;23.328;2023-10-08T13:13:31;12.73;;;9.18;;
6197;SDS011;3132;42.622;23.328;2023-10-08T13:15:58;11.13;;;10.13;;
6197;SDS011;3132;42.622;23.328;2023-10-08T13:18:27;13.00;;;9.15;;
6197;SDS011;3132;42.622;23.328;2023-10-08T13:20:53;12.40;;;9.02;;
6197;SDS011;3132;42.622;23.328;2023-10-08T13:23:19;10.95;;;9.82;;
6197;SDS011;3132;42.622;23.328;2023-10-08T13:25:52;10.95;;;8.90;;
6197;SDS011;3132;42.622;23.328;2023-10-08T13:28:22;11.80;;;9.10;;
6197;SDS011;3132;42.622;23.328;2023-10-08T13:30:51;14.38;;;9.43;;
6197;SDS011;3132;42.622;23.328;2023-10-08T13:33:18;12.95;;;8.85;;
6197;SDS011;3132;42.622;23.328;2023-10-08T13:35:49;9.90;;;8.60;;
6197;SDS011;3132;42.622;23.328;2023-10-08T13:38:16;11.43;;;9.02;;
6197;SDS011;3132;42.622;23.328;2023-10-08T13:40:48;9.82;;;8.85;;
6197;SDS011;3132;42.622;23.328;2023-10-08T13:43:37;10.88;;;9.75;;
6197;SDS011;3132;42.622;23.328;2023-10-08T13:46:05;11.07;;;8.98;;
6197;SDS011;3132;42.622;23.328;2023-10-08T13:48:35;11.90;;;9.48;;
6197;SDS011;3132;42.622;23.328;2023-10-08T13:51:04;14.00;;;9.85;;
6197;SDS011;3132;42.622;23.328;2023-10-08T13:53:33;11.30;;;9.85;;
6197;SDS011;3132;42.622;23.328;2023-10-08T13:56:01;12.18;;;9.60;;
6197;SDS011;3132;42.622;23.328;2023-10-08T13:58:29;12.45;;;8.82;;
6197;SDS011;3132;42.622;23.328;2023-10-08T14:00:55;13.18;;;9.40;;
6197;SDS011;3132;42.622;23.328;2023-10-08T14:03:21;10.25;;;9.20;;
6197;SDS011;3132;42.622;23.328;2023-10-08T14:05:49;10.88;;;9.05;;
6197;SDS011;3132;42.622;23.328;2023-10-08T14:08:19;9.35;;;8.63;;
6197;SDS011;3132;42.622;23.328;2023-10-08T14:10:45;14.82;;;10.32;;
6197;SDS011;3132;42.622;23.328;2023-10-08T14:13:13;13.45;;;9.70;;
6197;SDS011;3132;42.622;23.328;2023-10-08T14:15:44;15.27;;;10.13;;
6197;SDS011;3132;42.622;23.328;2023-10-08T14:18:20;12.40;;;9.60;;
6197;SDS011;3132;42.622;23.328;2023-10-08T14:20:51;12.52;;;10.00;;
6197;SDS011;3132;42.622;23.328;2023-10-08T14:23:22;11.43;;;9.55;;
6197;SDS011;3132;42.622;23.328;2023-10-08T14:25:49;12.55;;;8.95;;
6197;SDS011;3132;42.622;23.328;2023-10-08T14:28:17;13.57;;;9.88;;
6197;SDS011;3132;42.622;23.328;2023-10-08T14:31:05;13.38;;;9.30;;
6197;SDS011;3132;42.622;23.328;2023-10-08T14:33:31;13.18;;;8.45;;
6197;SDS011;3132;42.622;23.328;2023-10-08T14:36:06;9.05;;;8.35;;
6197;SDS011;3132;42.622;23.328;2023-10-08T14:38:51;13.77;;;9.52;;
6197;SDS011;3132;42.622;23.328;2023-10-08T14:41:35;12.05;;;9.70;;
6197;SDS011;3132;42.622;23.328;2023-10-08T14:44:19;16.67;;;9.73;;
6197;SDS011;3132;42.622;23.328;2023-10-08T14:46:44;11.98;;;10.05;;
6197;SDS011;3132;42.622;23.328;2023-10-08T14:49:09;14.15;;;9.57;;
6197;SDS011;3132;42.622;23.328;2023-10-08T14:51:36;13.60;;;9.07;;
6197;SDS011;3132;42.622;23.328;2023-10-08T14:54:05;16.77;;;9.63;;
6197;SDS011;3132;42.622;23.328;2023-10-08T14:56:32;14.70;;;9.25;;
6197;SDS011;3132;42.622;23.328;2023-10-08T14:58:59;10.85;;;9.15;;
6197;SDS011;3132;42.622;23.328;2023-10-08T15:01:26;20.37;;;9.63;;
6197;SDS011;3132;42.622;23.328;2023-10-08T15:03:53;15.20;;;9.30;;
6197;SDS011;3132;42.622;23.328;2023-10-08T15:06:18;19.92;;;9.45;;
6197;SDS011;3132;42.622;23.328;2023-10-08T15:08:45;10.38;;;8.50;;
6197;SDS011;3132;42.622;23.328;2023-10-08T15:11:11;10.37;;;9.33;;
6197;SDS011;3132;42.622;23.328;2023-10-08T15:13:37;12.37;;;8.57;;
6197;SDS011;3132;42.622;23.328;2023-10-08T15:16:04;17.97;;;9.60;;
6197;SDS011;3132;42.622;23.328;2023-10-08T15:18:30;13.00;;;9.77;;
6197;SDS011;3132;42.622;23.328;2023-10-08T15:20:57;14.18;;;9.98;;